Time;durP1;ratioP1;P1;durP2;ratioP2;P2;SDS_P1;SDS_P2;PMS_P1;PMS_P2;Temp;Humidity;BMP_temperature;BMP_pressure;BME280_temperature;BME280_humidity;BME280_pressure;Samples;Min_cycle;Max_cycle;Signal;HPM_P1;HPM_P2
2024/01/14 00:02:09;;;;;;;57.97;25.73;;;-1.00;96.00;;;;;;5111643;28;20020;-70
2024/01/14 00:04:34;;;;;;;57.97;25.30;;;-1.00;96.10;;;;;;5111037;28;20468;-70
2024/01/14 00:07:00;;;;;;;58.17;26.13;;;-1.00;96.00;;;;;;5111784;28;20027;-70
2024/01/14 00:09:25;;;;;;;57.53;24.88;;;-1.00;95.90;;;;;;5111477;28;20055;-70
2024/01/14 00:11:51;;;;;;;58.75;25.35;;;-1.10;95.90;;;;;;5112169;28;20059;-70
2024/01/14 00:14:16;;;;;;;57.53;25.77;;;-1.00;95.90;;;;;;5111311;28;20020;-69
2024/01/14 00:16:42;;;;;;;55.28;25.50;;;-1.00;95.90;;;;;;5114335;28;20027;-70
2024/01/14 00:19:09;;;;;;;56.80;25.90;;;-1.00;95.90;;;;;;5105708;28;20030;-70
2024/01/14 00:21:35;;;;;;;53.33;24.40;;;-1.10;95.90;;;;;;5104483;28;20027;-70
2024/01/14 00:24:03;;;;;;;54.47;24.25;;;-1.10;95.80;;;;;;5115194;28;20114;-69
2024/01/14 00:26:29;;;;;;;53.28;23.45;;;-1.10;95.80;;;;;;5114815;28;20035;-70
2024/01/14 00:28:55;;;;;;;56.17;25.02;;;-1.10;95.90;;;;;;5115183;28;20035;-70
2024/01/14 00:31:21;;;;;;;53.85;23.50;;;-1.10;95.90;;;;;;5114751;28;20026;-70
2024/01/14 00:33:49;;;;;;;57.17;24.63;;;-1.10;95.90;;;;;;5115197;28;20577;-69
2024/01/14 00:36:15;;;;;;;58.38;25.85;;;-1.10;95.90;;;;;;5114581;28;20123;-69
2024/01/14 00:38:41;;;;;;;60.22;26.48;;;-1.10;95.90;;;;;;5114696;28;20024;-70
2024/01/14 00:41:07;;;;;;;54.40;24.17;;;-1.10;95.90;;;;;;5114756;28;20034;-70
2024/01/14 00:43:32;;;;;;;54.17;24.23;;;-1.10;95.80;;;;;;5114438;28;20032;-69
2024/01/14 00:45:58;;;;;;;50.58;22.55;;;-1.10;95.70;;;;;;5114836;28;20077;-70
2024/01/14 00:48:24;;;;;;;51.33;22.40;;;-1.10;95.70;;;;;;5113117;28;20413;-70
2024/01/14 00:50:49;;;;;;;50.47;22.90;;;-1.10;95.60;;;;;;5114786;28;20036;-69
2024/01/14 00:53:15;;;;;;;52.00;22.30;;;-1.10;95.70;;;;;;5100094;28;20046;-72
2024/01/14 00:55:40;;;;;;;48.70;22.33;;;-1.10;95.50;;;;;;5094424;28;20427;-69
2024/01/14 00:58:06;;;;;;;52.88;24.17;;;-1.10;95.40;;;;;;5092906;28;20024;-69
2024/01/14 01:00:32;;;;;;;52.67;23.98;;;-1.10;95.40;;;;;;5093544;28;20378;-69
2024/01/14 01:02:57;;;;;;;52.75;24.02;;;-1.10;95.50;;;;;;5093943;28;20039;-70
2024/01/14 01:05:23;;;;;;;45.78;22.38;;;-1.10;95.40;;;;;;5093769;28;20181;-70
2024/01/14 01:07:48;;;;;;;48.45;22.20;;;-1.10;95.40;;;;;;5094317;28;20031;-69
2024/01/14 01:10:14;;;;;;;48.90;23.52;;;-1.10;95.40;;;;;;5094112;28;20072;-70
2024/01/14 01:12:40;;;;;;;48.85;22.77;;;-1.10;95.40;;;;;;5093344;28;20031;-69
2024/01/14 01:15:06;;;;;;;45.88;22.45;;;-1.10;95.40;;;;;;5094179;28;20040;-69
2024/01/14 01:17:32;;;;;;;53.55;23.63;;;-1.10;95.40;;;;;;5093549;28;20070;-69
2024/01/14 01:20:02;;;;;;;44.28;22.42;;;-1.10;95.40;;;;;;5094063;28;20030;-70
2024/01/14 01:22:28;;;;;;;48.03;22.27;;;-1.10;95.30;;;;;;5093292;28;20020;-70
2024/01/14 01:24:54;;;;;;;44.70;21.25;;;-1.10;95.30;;;;;;5092968;28;20081;-70
2024/01/14 01:27:20;;;;;;;48.72;22.23;;;-1.10;95.30;;;;;;5093012;28;20044;-70
2024/01/14 01:29:46;;;;;;;44.85;22.35;;;-1.10;95.40;;;;;;5093700;28;20024;-70
2024/01/14 01:32:11;;;;;;;49.50;22.48;;;-1.10;95.40;;;;;;5093596;28;20070;-70
2024/01/14 01:34:37;;;;;;;45.97;21.25;;;-1.10;95.40;;;;;;5091913;28;20030;-70
2024/01/14 01:37:05;;;;;;;48.08;22.55;;;-1.10;95.40;;;;;;5093704;28;20107;-70
2024/01/14 01:39:31;;;;;;;45.88;22.95;;;-1.10;95.40;;;;;;5093143;28;20092;-70
2024/01/14 01:41:58;;;;;;;46.70;21.88;;;-1.10;95.40;;;;;;5093361;28;20028;-72
2024/01/14 01:44:24;;;;;;;46.50;22.20;;;-1.10;95.30;;;;;;5092988;28;20024;-70
2024/01/14 01:46:50;;;;;;;53.20;23.17;;;-1.10;95.20;;;;;;5093356;28;20455;-70
2024/01/14 01:49:16;;;;;;;44.10;21.35;;;-1.10;95.20;;;;;;5091889;28;20333;-69
2024/01/14 01:51:47;;;;;;;49.50;22.92;;;-1.10;95.30;;;;;;5108097;28;20051;-69
2024/01/14 01:54:18;;;;;;;44.30;21.53;;;-1.10;95.30;;;;;;5113621;28;20047;-70
2024/01/14 01:56:43;;;;;;;46.03;22.08;;;-1.10;95.40;;;;;;5113187;28;20316;-69
2024/01/14 01:59:10;;;;;;;49.50;22.30;;;-1.10;95.40;;;;;;5112996;28;20138;-69
2024/01/14 02:01:37;;;;;;;43.85;22.65;;;-1.10;95.20;;;;;;5112812;28;20024;-70
2024/01/14 02:04:04;;;;;;;45.47;21.60;;;-1.10;95.30;;;;;;5113511;28;20024;-70
2024/01/14 02:06:32;;;;;;;47.20;22.48;;;-1.10;95.30;;;;;;5112895;28;20055;-70
2024/01/14 02:08:58;;;;;;;43.60;23.75;;;-1.10;95.30;;;;;;5113300;28;20032;-70
2024/01/14 02:11:24;;;;;;;48.60;23.58;;;-1.10;95.30;;;;;;5113067;28;20030;-70
2024/01/14 02:13:50;;;;;;;48.72;23.40;;;-1.10;95.50;;;;;;5113102;28;20418;-69
2024/01/14 02:16:15;;;;;;;48.67;23.35;;;-1.10;95.40;;;;;;5113476;28;20027;-70
2024/01/14 02:18:41;;;;;;;43.30;22.13;;;-1.10;95.40;;;;;;5112580;28;20395;-69
2024/01/14 02:21:08;;;;;;;49.17;23.85;;;-1.10;95.30;;;;;;5113084;28;20016;-70
2024/01/14 02:23:39;;;;;;;46.03;23.98;;;-1.10;95.30;;;;;;5112567;28;20015;-69
2024/01/14 02:26:04;;;;;;;46.88;21.75;;;-1.10;95.30;;;;;;5112538;28;20084;-68
2024/01/14 02:28:31;;;;;;;45.35;23.15;;;-1.10;95.40;;;;;;5112391;28;20035;-70
2024/01/14 02:30:56;;;;;;;43.97;22.17;;;-1.10;95.40;;;;;;5112667;28;20073;-69
2024/01/14 02:33:23;;;;;;;44.50;22.52;;;-1.10;95.40;;;;;;5112779;28;20428;-73
2024/01/14 02:35:49;;;;;;;47.03;22.67;;;-1.10;95.50;;;;;;5112567;28;20024;-69
2024/01/14 02:38:15;;;;;;;49.33;22.83;;;-1.00;95.40;;;;;;5112053;28;20030;-69
2024/01/14 02:40:40;;;;;;;47.20;23.63;;;-1.00;95.30;;;;;;5111704;28;20102;-69
2024/01/14 02:43:06;;;;;;;49.38;22.63;;;-1.00;95.30;;;;;;5112503;28;20031;-69
2024/01/14 02:45:32;;;;;;;48.70;22.05;;;-1.00;95.30;;;;;;5095036;28;20032;-69
2024/01/14 02:47:58;;;;;;;43.90;21.10;;;-1.10;95.20;;;;;;5090685;28;20035;-69
2024/01/14 02:50:23;;;;;;;47.33;21.67;;;-1.10;95.20;;;;;;5092107;28;20089;-69
2024/01/14 02:52:49;;;;;;;41.60;21.95;;;-1.00;95.20;;;;;;5092048;28;20031;-69
2024/01/14 02:55:15;;;;;;;44.85;21.67;;;-1.00;95.20;;;;;;5092009;28;20035;-69
2024/01/14 02:57:40;;;;;;;47.13;22.77;;;-1.00;95.20;;;;;;5091681;28;20024;-69
2024/01/14 03:00:07;;;;;;;45.25;21.75;;;-1.00;95.30;;;;;;5091415;28;20044;-68
2024/01/14 03:02:33;;;;;;;43.95;21.75;;;-1.00;95.40;;;;;;5090172;28;20066;-69
2024/01/14 03:04:59;;;;;;;43.90;21.25;;;-1.00;95.40;;;;;;5091859;28;20031;-69
2024/01/14 03:07:24;;;;;;;46.25;22.45;;;-1.00;95.50;;;;;;5091867;28;20032;-69
2024/01/14 03:09:50;;;;;;;42.80;21.25;;;-1.00;95.50;;;;;;5090445;28;20100;-70
2024/01/14 03:12:15;;;;;;;44.05;21.83;;;-1.00;95.50;;;;;;5091747;28;20024;-70
2024/01/14 03:14:41;;;;;;;40.97;21.95;;;-1.00;95.50;;;;;;5090167;28;20476;-70
2024/01/14 03:17:07;;;;;;;43.10;21.67;;;-1.00;95.60;;;;;;5091636;28;20032;-70
2024/01/14 03:19:32;;;;;;;46.05;22.40;;;-1.00;95.60;;;;;;5091371;28;20028;-69
2024/01/14 03:22:00;;;;;;;40.00;20.20;;;-1.00;95.60;;;;;;5091667;28;20530;-69
2024/01/14 03:24:26;;;;;;;37.85;19.73;;;-1.00;95.80;;;;;;5091517;28;20039;-69
2024/01/14 03:26:51;;;;;;;41.63;20.42;;;-1.00;95.60;;;;;;5091508;28;20024;-69
2024/01/14 03:29:17;;;;;;;39.80;20.15;;;-1.00;95.60;;;;;;5091856;28;20063;-69
2024/01/14 03:31:43;;;;;;;37.20;18.33;;;-1.00;95.60;;;;;;5091447;28;20051;-69
2024/01/14 03:34:08;;;;;;;34.72;17.90;;;-1.00;95.50;;;;;;5091723;28;20056;-68
2024/01/14 03:36:34;;;;;;;38.00;19.38;;;-1.00;95.50;;;;;;5091383;28;20365;-69
2024/01/14 03:39:00;;;;;;;34.03;17.55;;;-1.00;95.50;;;;;;5090323;28;20024;-70
2024/01/14 03:41:26;;;;;;;33.40;16.83;;;-1.00;95.50;;;;;;5090312;28;20031;-70
2024/01/14 03:43:51;;;;;;;28.75;15.90;;;-1.00;95.40;;;;;;5089781;28;20031;-69
2024/01/14 03:46:17;;;;;;;35.50;17.85;;;-1.00;95.40;;;;;;5091593;28;20035;-69
2024/01/14 03:48:43;;;;;;;32.42;15.88;;;-1.00;95.30;;;;;;5090928;28;20028;-69
2024/01/14 03:51:08;;;;;;;31.85;15.70;;;-1.00;95.40;;;;;;5094891;28;20055;-69
2024/01/14 03:53:34;;;;;;;30.23;15.30;;;-1.00;95.30;;;;;;5095290;28;20103;-68
2024/01/14 03:55:59;;;;;;;32.78;15.95;;;-1.00;95.30;;;;;;5095407;28;20038;-69
2024/01/14 03:58:25;;;;;;;26.48;14.05;;;-1.00;95.40;;;;;;5096969;28;20539;-68
2024/01/14 04:00:51;;;;;;;27.42;14.48;;;-1.00;95.40;;;;;;5115302;28;20465;-69
2024/01/14 04:03:16;;;;;;;28.10;14.68;;;-1.00;95.40;;;;;;5115403;28;20028;-69
2024/01/14 04:05:42;;;;;;;27.35;14.43;;;-1.00;95.40;;;;;;5115237;28;20033;-69
2024/01/14 04:08:08;;;;;;;25.65;13.40;;;-1.00;95.40;;;;;;5115531;28;20032;-70
2024/01/14 04:10:35;;;;;;;26.23;13.63;;;-0.90;95.40;;;;;;5115160;28;20031;-70
2024/01/14 04:13:00;;;;;;;25.42;13.32;;;-0.90;95.30;;;;;;5115602;28;20015;-69
2024/01/14 04:15:26;;;;;;;27.30;12.05;;;-0.90;95.20;;;;;;5115848;28;20023;-68
2024/01/14 04:17:52;;;;;;;23.55;12.55;;;-0.90;95.20;;;;;;5105531;28;20107;-69
2024/01/14 04:20:17;;;;;;;22.88;12.10;;;-0.90;95.20;;;;;;5093804;28;20123;-70
2024/01/14 04:22:43;;;;;;;20.25;11.38;;;-0.80;95.20;;;;;;5094523;28;20028;-69
2024/01/14 04:25:08;;;;;;;19.23;10.70;;;-0.80;95.20;;;;;;5093377;28;20024;-69
2024/01/14 04:27:36;;;;;;;22.48;11.25;;;-0.80;95.20;;;;;;5094226;28;20429;-69
2024/01/14 04:30:03;;;;;;;23.42;11.35;;;-0.80;95.10;;;;;;5094557;28;20030;-69
2024/01/14 04:32:29;;;;;;;18.58;9.85;;;-0.80;95.00;;;;;;5094473;28;20115;-69
2024/01/14 04:34:54;;;;;;;23.13;11.35;;;-0.80;94.90;;;;;;5093493;28;20107;-69
2024/01/14 04:37:20;;;;;;;19.13;10.15;;;-0.70;94.90;;;;;;5093381;28;20095;-69
2024/01/14 04:39:46;;;;;;;21.95;9.88;;;-0.70;94.80;;;;;;5093855;28;20031;-69
2024/01/14 04:42:11;;;;;;;20.67;10.30;;;-0.70;94.70;;;;;;5094438;28;20425;-69
2024/01/14 04:44:37;;;;;;;19.40;10.35;;;-0.70;94.60;;;;;;5094085;28;20111;-69
2024/01/14 04:47:03;;;;;;;21.35;10.57;;;-0.70;94.60;;;;;;5094371;28;20039;-69
2024/01/14 04:49:28;;;;;;;18.73;9.48;;;-0.70;94.60;;;;;;5093093;28;20056;-69
2024/01/14 04:51:54;;;;;;;18.88;9.27;;;-0.70;94.60;;;;;;5092592;28;20430;-69
2024/01/14 04:54:19;;;;;;;19.48;9.52;;;-0.60;94.60;;;;;;5094159;28;20031;-69
2024/01/14 04:56:45;;;;;;;18.50;9.57;;;-0.60;94.50;;;;;;5093478;28;20407;-69
2024/01/14 04:59:11;;;;;;;17.20;8.75;;;-0.60;94.50;;;;;;5093951;28;20139;-69
2024/01/14 05:01:36;;;;;;;15.15;8.45;;;-0.60;94.40;;;;;;5093320;28;20099;-70
2024/01/14 05:04:03;;;;;;;15.57;8.40;;;-0.60;94.40;;;;;;5094071;28;20081;-69
2024/01/14 05:06:29;;;;;;;18.55;8.93;;;-0.60;94.40;;;;;;5094013;28;20503;-69
2024/01/14 05:08:55;;;;;;;15.05;8.30;;;-0.60;94.40;;;;;;5093402;28;20409;-69
2024/01/14 05:11:20;;;;;;;16.45;8.23;;;-0.60;94.40;;;;;;5092760;28;20047;-69
2024/01/14 05:13:46;;;;;;;18.25;7.97;;;-0.50;94.40;;;;;;5093740;28;20549;-69
2024/01/14 05:16:12;;;;;;;14.60;8.00;;;-0.50;94.30;;;;;;5093899;28;20031;-69
2024/01/14 05:18:37;;;;;;;19.05;8.48;;;-0.50;94.30;;;;;;5093097;28;20028;-70
2024/01/14 05:21:04;;;;;;;16.00;7.95;;;-0.50;94.30;;;;;;5093467;28;20099;-68
2024/01/14 05:23:30;;;;;;;14.68;7.60;;;-0.50;94.20;;;;;;5093807;28;20487;-69
2024/01/14 05:25:55;;;;;;;13.50;7.15;;;-0.40;94.10;;;;;;5093224;28;20064;-69
2024/01/14 05:28:21;;;;;;;12.82;6.93;;;-0.40;94.10;;;;;;5093677;28;20030;-69
2024/01/14 05:30:47;;;;;;;11.38;7.15;;;-0.40;94.00;;;;;;5092822;28;20042;-69
2024/01/14 05:33:13;;;;;;;12.75;7.10;;;-0.40;93.80;;;;;;5093325;28;20034;-69
2024/01/14 05:35:38;;;;;;;11.80;6.45;;;-0.40;93.80;;;;;;5092860;28;20028;-69
2024/01/14 05:38:04;;;;;;;14.10;6.78;;;-0.30;93.80;;;;;;5092887;28;20461;-69
2024/01/14 05:40:30;;;;;;;15.98;7.22;;;-0.30;93.80;;;;;;5092858;28;20036;-69
2024/01/14 05:42:55;;;;;;;13.35;7.10;;;-0.30;93.70;;;;;;5092705;28;20058;-68
2024/01/14 05:45:21;;;;;;;10.55;6.57;;;-0.30;93.70;;;;;;5093078;28;20437;-68
2024/01/14 05:47:46;;;;;;;11.43;6.43;;;-0.30;93.60;;;;;;5092468;28;20063;-70
2024/01/14 05:50:12;;;;;;;13.05;6.65;;;-0.30;93.70;;;;;;5093120;28;20471;-69
2024/01/14 05:52:38;;;;;;;10.63;5.88;;;-0.30;93.70;;;;;;5093761;28;20039;-76
2024/01/14 05:55:04;;;;;;;15.88;6.53;;;-0.30;93.70;;;;;;5092748;28;20396;-69
2024/01/14 05:57:30;;;;;;;12.18;6.20;;;-0.30;93.70;;;;;;5091606;28;20449;-69
2024/01/14 05:59:56;;;;;;;10.85;6.05;;;-0.30;93.70;;;;;;5091896;28;20492;-69
2024/01/14 06:02:22;;;;;;;12.40;6.50;;;-0.30;93.70;;;;;;5092389;28;20038;-69
2024/01/14 06:04:47;;;;;;;10.63;5.85;;;-0.30;93.80;;;;;;5092037;28;20032;-70
2024/01/14 06:07:13;;;;;;;10.70;5.60;;;-0.30;93.80;;;;;;5093219;28;20119;-70
2024/01/14 06:09:39;;;;;;;11.63;6.25;;;-0.30;93.80;;;;;;5093500;28;20031;-69
2024/01/14 06:12:06;;;;;;;10.85;6.22;;;-0.30;93.90;;;;;;5091790;28;20488;-69
2024/01/14 06:14:31;;;;;;;10.55;5.70;;;-0.30;94.00;;;;;;5092033;28;20069;-69
2024/01/14 06:16:57;;;;;;;12.02;6.00;;;-0.30;94.00;;;;;;5092101;28;20103;-69
2024/01/14 06:19:23;;;;;;;10.43;6.30;;;-0.30;94.00;;;;;;5092011;28;20020;-69
2024/01/14 06:21:48;;;;;;;10.38;5.70;;;-0.30;94.00;;;;;;5090645;28;20402;-69
2024/01/14 06:24:14;;;;;;;10.82;6.07;;;-0.30;94.00;;;;;;5092439;28;20108;-69
2024/01/14 06:26:40;;;;;;;9.07;5.55;;;-0.20;94.30;;;;;;5092383;28;20028;-68
2024/01/14 06:29:05;;;;;;;10.88;5.90;;;-0.20;94.00;;;;;;5091603;28;20020;-69
2024/01/14 06:31:31;;;;;;;8.85;5.68;;;-0.20;94.00;;;;;;5092015;28;20077;-68
2024/01/14 06:33:56;;;;;;;8.40;5.05;;;-0.20;94.00;;;;;;5092062;28;20062;-68
2024/01/14 06:36:22;;;;;;;11.15;6.05;;;-0.20;94.00;;;;;;5092437;28;20028;-69
2024/01/14 06:38:47;;;;;;;9.63;5.43;;;-0.20;94.10;;;;;;5091760;28;20086;-68
2024/01/14 06:41:18;;;;;;;11.95;5.43;;;-0.20;94.10;;;;;;5092268;28;20511;-68
2024/01/14 06:43:45;;;;;;;13.65;6.20;;;-0.20;94.20;;;;;;5090486;28;20037;-70
2024/01/14 06:46:11;;;;;;;10.00;5.32;;;-0.20;94.20;;;;;;5092039;28;20097;-68
2024/01/14 06:48:36;;;;;;;11.45;5.75;;;-0.20;94.20;;;;;;5092124;28;20028;-69
2024/01/14 06:51:02;;;;;;;10.95;5.80;;;-0.10;94.30;;;;;;5092028;28;20020;-68
2024/01/14 06:53:28;;;;;;;10.48;5.50;;;-0.10;94.30;;;;;;5092134;28;20461;-69
2024/01/14 06:55:54;;;;;;;11.95;5.68;;;-0.10;94.30;;;;;;5091531;28;20031;-69
2024/01/14 06:58:19;;;;;;;10.90;5.68;;;-0.10;94.20;;;;;;5092215;28;20031;-69
2024/01/14 07:00:45;;;;;;;10.93;6.03;;;-0.10;94.30;;;;;;5091102;28;20405;-70
2024/01/14 07:03:11;;;;;;;10.25;5.32;;;-0.10;94.20;;;;;;5091640;28;20047;-69
2024/01/14 07:05:36;;;;;;;10.18;5.25;;;0.00;94.20;;;;;;5091528;28;20086;-68
2024/01/14 07:08:02;;;;;;;10.32;5.35;;;0.00;94.20;;;;;;5090000;28;20025;-68
2024/01/14 07:10:28;;;;;;;11.70;5.28;;;0.00;94.10;;;;;;5091481;28;20032;-69
2024/01/14 07:12:54;;;;;;;8.85;5.20;;;0.00;94.10;;;;;;5091429;28;20398;-69
2024/01/14 07:15:20;;;;;;;8.77;5.63;;;0.10;94.10;;;;;;5091373;28;20035;-68
2024/01/14 07:17:45;;;;;;;9.55;5.82;;;0.10;94.00;;;;;;5091672;28;20099;-74
2024/01/14 07:20:11;;;;;;;9.27;5.65;;;0.10;94.00;;;;;;5091710;28;20111;-69
2024/01/14 07:22:37;;;;;;;10.32;5.70;;;0.10;94.00;;;;;;5090276;28;20389;-69
2024/01/14 07:25:04;;;;;;;10.15;5.60;;;0.10;94.00;;;;;;5094523;28;20028;-69
2024/01/14 07:27:30;;;;;;;11.20;6.03;;;0.20;93.90;;;;;;5095736;28;20038;-69
2024/01/14 07:29:56;;;;;;;9.20;5.80;;;0.10;93.90;;;;;;5095495;28;20384;-69
2024/01/14 07:32:22;;;;;;;8.20;5.07;;;0.20;93.80;;;;;;5095384;28;20028;-70
2024/01/14 07:34:47;;;;;;;10.60;5.55;;;0.20;93.70;;;;;;5095811;28;20107;-70
2024/01/14 07:37:13;;;;;;;11.75;5.95;;;0.20;93.70;;;;;;5095692;28;20116;-68
2024/01/14 07:39:38;;;;;;;10.30;5.28;;;0.20;93.60;;;;;;5094318;28;20028;-69
2024/01/14 07:42:05;;;;;;;9.15;5.30;;;0.20;93.60;;;;;;5095230;28;20027;-69
2024/01/14 07:44:30;;;;;;;9.20;5.57;;;0.30;93.60;;;;;;5096509;28;20391;-69
2024/01/14 07:46:56;;;;;;;8.93;4.75;;;0.30;93.50;;;;;;5115161;28;20032;-69
2024/01/14 07:49:22;;;;;;;9.95;4.95;;;0.30;93.30;;;;;;5116175;28;20019;-69
2024/01/14 07:51:47;;;;;;;7.78;5.10;;;0.30;93.30;;;;;;5115165;28;20598;-69
2024/01/14 07:54:13;;;;;;;8.50;5.18;;;0.40;93.20;;;;;;5116208;28;20490;-69
2024/01/14 07:56:39;;;;;;;9.05;5.03;;;0.40;93.10;;;;;;5115627;28;20136;-69
2024/01/14 07:59:04;;;;;;;9.77;5.40;;;0.40;93.10;;;;;;5115013;28;20039;-69
2024/01/14 08:01:30;;;;;;;8.82;5.55;;;0.40;93.10;;;;;;5115183;28;20485;-69
2024/01/14 08:03:55;;;;;;;9.63;5.47;;;0.40;93.10;;;;;;5110471;28;20161;-70
2024/01/14 08:06:23;;;;;;;9.85;5.57;;;0.40;93.20;;;;;;5094080;28;20040;-69
2024/01/14 08:08:48;;;;;;;9.95;5.60;;;0.50;93.20;;;;;;5094827;28;20081;-69
2024/01/14 08:11:14;;;;;;;10.85;5.90;;;0.60;93.10;;;;;;5094607;28;20032;-70
2024/01/14 08:13:40;;;;;;;10.95;5.53;;;0.70;92.70;;;;;;5094424;28;20055;-69
2024/01/14 08:16:06;;;;;;;11.40;5.28;;;0.80;92.50;;;;;;5093732;28;20031;-69
2024/01/14 08:18:32;;;;;;;9.63;5.22;;;0.90;92.30;;;;;;5094606;28;20082;-68
2024/01/14 08:20:57;;;;;;;9.23;5.07;;;1.00;91.80;;;;;;5101723;28;20145;-70
2024/01/14 08:23:23;;;;;;;8.57;5.03;;;1.10;91.60;;;;;;5107905;28;20033;-71
2024/01/14 08:25:48;;;;;;;9.40;5.22;;;1.20;91.30;;;;;;5107401;28;20111;-70
2024/01/14 08:28:14;;;;;;;11.90;5.35;;;1.20;91.20;;;;;;5103229;28;20069;-70
2024/01/14 08:30:40;;;;;;;6.82;4.55;;;1.30;91.00;;;;;;5098344;28;20433;-71
2024/01/14 08:33:05;;;;;;;8.27;5.05;;;1.30;90.60;;;;;;5096670;28;20433;-69
2024/01/14 08:35:31;;;;;;;7.80;4.82;;;1.40;90.40;;;;;;5095114;28;20112;-69
2024/01/14 08:37:57;;;;;;;8.93;4.32;;;1.50;90.00;;;;;;5096887;28;20031;-70
2024/01/14 08:40:23;;;;;;;8.30;4.85;;;1.50;89.30;;;;;;5097713;28;20102;-70
2024/01/14 08:42:48;;;;;;;8.60;4.28;;;1.60;89.10;;;;;;5097493;28;20123;-69
2024/01/14 08:45:16;;;;;;;7.32;4.72;;;1.60;88.40;;;;;;5104651;28;20032;-69
2024/01/14 08:47:42;;;;;;;7.15;4.57;;;1.60;88.00;;;;;;5103017;28;20035;-71
2024/01/14 08:50:11;;;;;;;7.55;4.55;;;1.60;87.90;;;;;;5101209;28;20088;-70
2024/01/14 08:52:40;;;;;;;8.55;4.68;;;1.60;87.80;;;;;;5105473;28;20034;-70
2024/01/14 08:55:07;;;;;;;7.63;4.78;;;1.60;87.90;;;;;;5102771;28;20030;-70
2024/01/14 08:57:32;;;;;;;7.78;4.70;;;1.60;87.70;;;;;;5104573;28;20455;-69
2024/01/14 08:59:58;;;;;;;8.10;3.90;;;1.70;87.30;;;;;;5101757;28;20070;-69
2024/01/14 09:02:25;;;;;;;6.68;3.85;;;1.70;86.70;;;;;;5103043;28;20019;-70
2024/01/14 09:04:51;;;;;;;5.50;3.65;;;1.70;85.90;;;;;;5104712;28;20073;-70
2024/01/14 09:07:16;;;;;;;7.38;4.22;;;1.70;85.90;;;;;;5104762;28;20035;-71
2024/01/14 09:09:42;;;;;;;5.45;3.40;;;1.70;85.80;;;;;;5103742;28;20066;-71
2024/01/14 09:12:07;;;;;;;8.57;3.90;;;1.70;85.30;;;;;;5102119;28;20090;-70
2024/01/14 09:14:33;;;;;;;7.35;3.67;;;1.70;84.80;;;;;;5104430;28;20045;-70
2024/01/14 09:16:59;;;;;;;6.70;3.42;;;1.70;84.80;;;;;;5103630;28;20028;-70
2024/01/14 09:19:24;;;;;;;5.97;3.47;;;1.70;84.90;;;;;;5103684;28;20024;-70
2024/01/14 09:21:51;;;;;;;6.55;3.63;;;1.70;84.80;;;;;;5101625;28;20024;-70
2024/01/14 09:24:17;;;;;;;6.28;3.53;;;1.70;84.90;;;;;;5102193;28;20028;-68
2024/01/14 09:26:42;;;;;;;6.10;3.75;;;1.80;84.70;;;;;;5092397;28;20403;-68
2024/01/14 09:29:08;;;;;;;5.75;3.33;;;1.80;84.70;;;;;;5089544;28;20027;-70
2024/01/14 09:31:33;;;;;;;7.05;3.55;;;1.80;84.50;;;;;;5092447;28;20237;-69
2024/01/14 09:33:59;;;;;;;6.88;3.50;;;1.90;84.50;;;;;;5091936;28;20030;-69
2024/01/14 09:36:26;;;;;;;5.93;3.20;;;1.90;84.00;;;;;;5092183;28;20020;-71
2024/01/14 09:38:52;;;;;;;6.30;3.65;;;2.00;83.80;;;;;;5092452;28;20040;-70
2024/01/14 09:41:43;;;;;;;7.97;2.95;;;2.00;83.70;;;;;;5091751;28;20453;-70
2024/01/14 09:44:15;;;;;;;6.88;3.40;;;2.00;83.40;;;;;;5091279;28;20028;-70
2024/01/14 09:46:41;;;;;;;5.35;3.08;;;2.10;83.10;;;;;;5092999;28;20093;-69
2024/01/14 09:49:10;;;;;;;7.47;3.65;;;2.10;83.20;;;;;;5091596;28;20375;-69
2024/01/14 09:51:37;;;;;;;6.45;3.25;;;2.20;83.60;;;;;;5090906;28;20060;-70
2024/01/14 09:54:03;;;;;;;6.60;3.45;;;2.20;83.10;;;;;;5091789;28;20032;-69
2024/01/14 09:56:32;;;;;;;6.97;3.40;;;2.30;82.90;;;;;;5092236;28;20031;-69
2024/01/14 09:58:58;;;;;;;7.75;3.75;;;2.40;83.00;;;;;;5091712;28;20069;-69
2024/01/14 10:01:30;;;;;;;5.38;3.28;;;2.50;82.40;;;;;;5092177;28;20107;-70
2024/01/14 10:03:58;;;;;;;6.78;3.85;;;2.60;82.00;;;;;;5091812;28;20107;-67
2024/01/14 10:06:24;;;;;;;7.88;3.92;;;2.70;81.60;;;;;;5092123;28;20032;-69
2024/01/14 10:08:50;;;;;;;7.03;4.07;;;2.90;81.10;;;;;;5092081;28;20031;-71
2024/01/14 10:11:15;;;;;;;6.72;3.63;;;3.00;80.40;;;;;;5088877;28;20024;-70
2024/01/14 10:13:41;;;;;;;7.38;3.90;;;3.20;79.50;;;;;;5091807;28;20430;-69
2024/01/14 10:16:07;;;;;;;6.03;3.65;;;3.30;78.90;;;;;;5089742;28;20073;-69
2024/01/14 10:18:36;;;;;;;9.88;3.55;;;3.40;78.10;;;;;;5091830;28;20032;-70
2024/01/14 10:21:01;;;;;;;8.52;3.90;;;3.50;77.80;;;;;;5091480;28;20016;-70
2024/01/14 10:23:27;;;;;;;6.95;3.63;;;3.60;77.00;;;;;;5092025;28;20015;-70
2024/01/14 10:25:54;;;;;;;5.47;3.17;;;3.70;76.10;;;;;;5091453;28;20035;-69
2024/01/14 10:28:20;;;;;;;6.68;3.63;;;3.70;75.50;;;;;;5091366;28;20225;-70
2024/01/14 10:30:45;;;;;;;8.15;3.80;;;3.80;75.30;;;;;;5091880;28;20016;-70
2024/01/14 10:33:11;;;;;;;7.00;3.13;;;3.80;75.10;;;;;;5091413;28;20055;-71
2024/01/14 10:35:38;;;;;;;7.45;3.40;;;3.80;74.70;;;;;;5091075;28;20057;-70
2024/01/14 10:38:04;;;;;;;5.78;3.22;;;3.90;74.50;;;;;;5091320;28;20105;-69
2024/01/14 10:40:30;;;;;;;5.38;3.13;;;3.90;74.40;;;;;;5091790;28;20465;-69
2024/01/14 10:42:56;;;;;;;8.07;3.60;;;4.00;74.20;;;;;;5091389;28;20069;-76
2024/01/14 10:45:22;;;;;;;5.50;3.20;;;4.00;74.10;;;;;;5091148;28;20036;-70
2024/01/14 10:47:52;;;;;;;6.45;3.22;;;4.10;73.30;;;;;;5091593;28;20082;-70
2024/01/14 10:50:18;;;;;;;6.43;3.20;;;4.10;73.20;;;;;;5088150;28;20028;-69
2024/01/14 10:52:52;;;;;;;5.57;3.10;;;4.10;73.00;;;;;;5091629;28;20380;-70
2024/01/14 10:55:48;;;;;;;5.95;3.17;;;4.20;72.50;;;;;;5085329;28;20430;-69
2024/01/14 10:58:27;;;;;;;5.57;2.92;;;4.20;72.00;;;;;;5089656;28;20512;-69
2024/01/14 11:01:02;;;;;;;5.80;3.40;;;4.20;71.80;;;;;;5091353;28;20055;-71
2024/01/14 11:03:29;;;;;;;7.90;3.95;;;4.20;71.70;;;;;;5091645;28;20062;-67
2024/01/14 11:05:55;;;;;;;9.88;4.78;;;4.20;71.50;;;;;;5091544;28;20097;-69
2024/01/14 11:08:21;;;;;;;5.53;3.30;;;4.30;71.30;;;;;;5090654;28;20107;-68
2024/01/14 11:10:49;;;;;;;8.43;4.22;;;4.30;71.10;;;;;;5091111;28;20107;-68
2024/01/14 11:13:33;;;;;;;8.68;4.55;;;4.30;71.00;;;;;;5090398;28;20505;-69
2024/01/14 11:16:07;;;;;;;7.93;4.38;;;4.40;70.80;;;;;;5088660;28;20051;-69
2024/01/14 11:18:43;;;;;;;8.32;4.25;;;4.50;70.60;;;;;;5088445;28;20028;-70
2024/01/14 11:21:41;;;;;;;7.45;4.10;;;4.50;70.30;;;;;;5090409;28;20372;-69
2024/01/14 11:24:07;;;;;;;8.85;4.85;;;4.50;70.00;;;;;;5089927;28;20028;-69
2024/01/14 11:26:33;;;;;;;8.73;5.22;;;4.50;69.90;;;;;;5090415;28;20107;-69
2024/01/14 11:29:00;;;;;;;9.43;4.97;;;4.60;70.00;;;;;;5090733;28;20103;-69
2024/01/14 11:32:04;;;;;;;10.30;5.20;;;4.60;70.00;;;;;;5091080;28;20024;-69
2024/01/14 11:34:47;;;;;;;10.10;5.28;;;4.70;69.60;;;;;;5089648;28;20355;-69
2024/01/14 11:37:35;;;;;;;8.68;4.68;;;4.70;69.20;;;;;;5090396;28;20032;-69
2024/01/14 11:40:06;;;;;;;11.70;6.00;;;4.70;69.40;;;;;;5090078;28;20400;-69
2024/01/14 11:43:03;;;;;;;12.52;6.43;;;4.70;68.80;;;;;;5090925;28;20051;-73
2024/01/14 11:45:29;;;;;;;8.68;4.97;;;4.80;68.60;;;;;;5090337;28;20052;-72
2024/01/14 11:47:55;;;;;;;10.93;6.68;;;4.80;68.50;;;;;;5091848;28;20170;-73
2024/01/14 11:50:25;;;;;;;12.35;5.70;;;4.80;68.20;;;;;;5091690;28;20492;-71
2024/01/14 11:52:52;;;;;;;11.27;5.78;;;4.80;68.30;;;;;;5084051;28;20020;-73
2024/01/14 11:55:24;;;;;;;11.15;5.93;;;4.80;68.20;;;;;;5090344;28;20020;-73
2024/01/14 11:57:49;;;;;;;12.98;6.32;;;4.80;68.00;;;;;;5090469;28;20047;-72
2024/01/14 12:00:21;;;;;;;10.32;5.80;;;4.70;67.90;;;;;;5089341;28;20504;-73
2024/01/14 12:02:47;;;;;;;10.43;6.15;;;4.70;68.00;;;;;;5090989;28;20123;-72
2024/01/14 12:05:20;;;;;;;9.93;5.72;;;4.70;68.20;;;;;;5090352;28;20399;-72
2024/01/14 12:07:46;;;;;;;10.80;5.70;;;4.70;68.00;;;;;;5089207;28;20032;-73
2024/01/14 12:10:18;;;;;;;11.23;5.78;;;4.70;68.30;;;;;;5089667;28;20107;-74
2024/01/14 12:12:44;;;;;;;11.50;6.13;;;4.70;68.10;;;;;;5099231;28;20024;-75
2024/01/14 12:15:10;;;;;;;11.23;6.05;;;4.60;68.20;;;;;;5093937;28;20428;-73
2024/01/14 12:17:36;;;;;;;11.15;6.00;;;4.70;68.30;;;;;;5094377;28;20089;-72
2024/01/14 12:20:04;;;;;;;9.23;5.13;;;4.70;68.20;;;;;;5093836;28;20419;-72
2024/01/14 12:22:31;;;;;;;11.35;5.32;;;4.70;68.10;;;;;;5094029;28;20442;-73
2024/01/14 12:24:57;;;;;;;11.35;5.70;;;4.70;68.20;;;;;;5094330;28;20410;-73
2024/01/14 12:27:22;;;;;;;9.00;5.30;;;4.70;68.10;;;;;;5093675;28;20461;-72
2024/01/14 12:29:48;;;;;;;9.32;5.00;;;4.80;68.30;;;;;;5094027;28;20030;-73
2024/01/14 12:32:14;;;;;;;10.60;5.90;;;4.80;68.10;;;;;;5092526;28;20024;-73
2024/01/14 12:34:43;;;;;;;12.60;5.95;;;4.80;68.20;;;;;;5094080;28;20530;-73
2024/01/14 12:37:10;;;;;;;9.57;5.78;;;4.80;68.20;;;;;;5093465;28;20030;-72
2024/01/14 12:39:36;;;;;;;11.07;5.43;;;4.80;68.40;;;;;;5094036;28;20028;-72